createdAt,value
2023-04-03T00:03:18.884Z,7.53
2023-04-03T00:08:17.038Z,7.38
2023-04-03T00:13:18.163Z,7.29
2023-04-03T00:18:19.368Z,7.22
2023-04-03T00:23:20.551Z,7.29
2023-04-03T00:28:22.713Z,7.32
2023-04-03T00:33:21.803Z,7.07
2023-04-03T00:38:23.057Z,7.01
2023-04-03T00:43:24.121Z,6.83
2023-04-03T00:48:25.213Z,6.80
2023-04-03T00:53:26.284Z,6.73
2023-04-03T00:58:27.438Z,6.71
2023-04-03T01:03:28.623Z,6.68
2023-04-03T01:08:29.819Z,6.53
2023-04-03T01:13:31.024Z,6.53
2023-04-03T01:18:32.097Z,6.53
2023-04-03T01:23:34.281Z,6.35
2023-04-03T01:28:33.312Z,6.30
2023-04-03T01:33:34.478Z,6.29
2023-04-03T01:38:35.542Z,6.28
2023-04-03T01:43:36.657Z,6.16
2023-04-03T01:48:38.840Z,6.07
2023-04-03T01:53:38.013Z,6.06
2023-04-03T01:58:39.273Z,6.07
2023-04-03T02:03:40.419Z,5.86
2023-04-03T02:08:42.581Z,5.64
2023-04-03T02:13:41.778Z,5.46
2023-04-03T02:18:42.942Z,5.34
2023-04-03T02:23:44.134Z,5.28
2023-04-03T02:28:46.339Z,5.17
2023-04-03T02:33:45.544Z,5.19
2023-04-03T02:38:46.729Z,5.19
2023-04-03T02:43:47.818Z,5.14
2023-04-03T02:48:49.007Z,5.09
2023-04-03T02:53:50.174Z,4.92
2023-04-03T02:58:51.328Z,4.92
2023-04-03T03:03:52.511Z,4.80
2023-04-03T03:08:53.632Z,4.73
2023-04-03T03:13:53.729Z,4.64
2023-04-03T03:18:54.883Z,4.52
2023-04-03T03:23:56.074Z,4.46
2023-04-03T03:28:57.159Z,4.43
2023-04-03T03:34:00.207Z,4.37
2023-04-03T03:38:59.344Z,4.29
2023-04-03T03:43:59.512Z,4.19
2023-04-03T03:49:01.565Z,4.21
2023-04-03T03:54:02.670Z,4.15
2023-04-03T03:59:02.742Z,4.15
2023-04-03T04:04:01.993Z,4.03
2023-04-03T04:09:04.144Z,4.01
2023-04-03T04:14:03.376Z,4.01
2023-04-03T04:19:07.499Z,3.90
2023-04-03T04:24:05.509Z,3.89
2023-04-03T04:29:07.666Z,3.80
2023-04-03T04:34:06.817Z,3.76
2023-04-03T04:39:07.996Z,3.79
2023-04-03T04:44:10.069Z,3.76
2023-04-03T04:49:09.278Z,3.70
2023-04-03T04:54:10.584Z,3.70
2023-04-03T04:59:11.628Z,3.64
2023-04-03T05:04:12.800Z,3.64
2023-04-03T05:09:13.911Z,3.64
2023-04-03T05:14:16.026Z,3.58
2023-04-03T05:19:15.150Z,3.57
2023-04-03T05:24:16.229Z,3.62
2023-04-03T05:29:17.452Z,3.62
2023-04-03T05:34:18.606Z,3.70
2023-04-03T05:39:19.857Z,3.76
2023-04-03T05:44:21.045Z,3.70
2023-04-03T05:49:23.151Z,3.72
2023-04-03T05:54:22.344Z,3.83
2023-04-03T05:59:22.642Z,3.76
2023-04-03T06:04:23.795Z,3.85
2023-04-03T06:09:24.018Z,3.89
2023-04-03T06:14:26.063Z,3.94
2023-04-03T06:19:26.173Z,3.97
2023-04-03T06:24:25.384Z,3.94
2023-04-03T06:29:26.577Z,3.97
2023-04-03T06:34:27.738Z,3.92
2023-04-03T06:39:29.969Z,3.86
2023-04-03T06:44:30.044Z,4.03
2023-04-03T06:49:29.204Z,3.97
2023-04-03T06:54:30.416Z,4.06
2023-04-03T06:59:31.501Z,4.08
2023-04-03T07:04:33.617Z,4.18
2023-04-03T07:09:32.848Z,4.36
2023-04-03T07:14:33.928Z,4.34
2023-04-03T07:19:35.160Z,4.37
2023-04-03T07:24:36.207Z,4.59
2023-04-03T07:29:38.304Z,4.52
2023-04-03T07:34:37.580Z,4.57
2023-04-03T07:39:39.659Z,4.67
2023-04-03T07:44:38.875Z,4.64
2023-04-03T07:49:40.266Z,4.39
2023-04-03T07:54:41.359Z,4.52
2023-04-03T07:59:42.445Z,4.75
2023-04-03T08:04:43.550Z,4.73
2023-04-03T08:09:44.619Z,4.70
2023-04-03T08:14:45.833Z,4.64
2023-04-03T08:19:46.930Z,4.80
2023-04-03T08:24:58.535Z,4.69
2023-04-03T08:29:48.080Z,4.73
2023-04-03T08:34:49.346Z,4.64
2023-04-03T08:39:50.519Z,4.61
2023-04-03T08:44:51.648Z,4.80
2023-04-03T08:49:52.836Z,5.01
2023-04-03T08:54:53.935Z,4.86
2023-04-03T08:59:56.010Z,4.86
2023-04-03T09:04:55.095Z,4.84
2023-04-03T09:09:56.347Z,4.89
2023-04-03T09:14:58.409Z,4.86
2023-04-03T09:19:57.478Z,5.12
2023-04-03T09:24:58.722Z,5.16
2023-04-03T09:29:59.954Z,4.99
2023-04-03T09:35:03.949Z,5.05
2023-04-03T09:40:01.072Z,4.88
2023-04-03T09:45:02.337Z,4.96
2023-04-03T09:50:04.404Z,5.12
2023-04-03T09:55:04.472Z,5.49
2023-04-03T10:00:03.686Z,5.45
2023-04-03T10:10:05.844Z,5.82
2023-04-03T10:15:04.916Z,5.66
2023-04-03T10:20:05.994Z,5.83
2023-04-03T10:25:08.051Z,5.75
2023-04-03T10:30:07.210Z,5.53
2023-04-03T10:35:09.284Z,5.88
2023-04-03T10:40:08.395Z,6.11
2023-04-03T10:45:10.473Z,6.21
2023-04-03T10:50:09.647Z,6.04
2023-04-03T10:55:10.721Z,6.07
2023-04-03T11:00:11.777Z,6.19
2023-04-03T11:05:13.911Z,6.40
2023-04-03T11:10:14.768Z,6.36
2023-04-03T11:15:12.994Z,6.47
2023-04-03T11:20:15.083Z,6.77
2023-04-03T11:25:14.192Z,6.86
2023-04-03T11:30:16.259Z,7.15
2023-04-03T11:35:16.346Z,7.27
2023-04-03T11:40:15.426Z,7.31
2023-04-03T11:45:20.565Z,7.52
2023-04-03T11:50:17.595Z,7.56
2023-04-03T11:55:19.668Z,7.52
2023-04-03T12:00:18.743Z,7.72
2023-04-03T12:05:19.913Z,7.67
2023-04-03T12:10:31.849Z,7.35
2023-04-03T12:15:21.954Z,7.84
2023-04-03T12:20:23.992Z,8.29
2023-04-03T12:25:23.106Z,8.28
2023-04-03T12:30:25.190Z,8.25
2023-04-03T12:35:24.249Z,8.37
2023-04-03T12:40:25.313Z,8.51
2023-04-03T12:45:26.525Z,8.14
2023-04-03T12:50:27.582Z,8.57
2023-04-03T12:55:28.708Z,8.32
2023-04-03T13:00:30.821Z,8.07
2023-04-03T13:05:29.916Z,8.51
2023-04-03T13:10:30.979Z,8.04
2023-04-03T13:15:32.064Z,7.81
2023-04-03T13:20:34.141Z,8.12
2023-04-03T13:25:33.283Z,8.28
2023-04-03T13:30:34.417Z,8.33
2023-04-03T13:35:35.549Z,8.33
